JZA4 CYOW-CYUL
Flight info
| Callsign | JZA4 |
|---|---|
| Flight time | 0h 32m |
| Altitude | 17000 |
| Route | TAKOL DCT EMPEK LFLER7 |
| Aircraft | DH8D/M-SDE2E3FGRY/H |
Departure
| Time | 2026-04-30 21:52 |
|---|---|
| Airport | Ottawa Macdonald-Cartier International Airport (CYOW) |
Arrival
| Time | 2026-04-30 22:24 |
|---|---|
| Airport | Montreal / Pierre Elliott Trudeau International Airport (CYUL) |
| Time | Latitude | Longitude | Altitude | Speed | Heading |
|---|---|---|---|---|---|
| 2026-04-30 21:25 | 45.32067 | -75.66395 | 378 ft | 0 kts | 292° |
| 2026-04-30 21:45 | 45.32067 | -75.66394 | 378 ft | 0 kts | 292° |
| 2026-04-30 21:45 | 45.32063 | -75.66378 | 378 ft | 2 kts | 284° |
| 2026-04-30 21:45 | 45.32060 | -75.66357 | 377 ft | 2 kts | 275° |
| 2026-04-30 21:46 | 45.32059 | -75.66335 | 377 ft | 2 kts | 265° |
| 2026-04-30 21:46 | 45.32062 | -75.66313 | 377 ft | 2 kts | 255° |
| 2026-04-30 21:46 | 45.32067 | -75.66293 | 377 ft | 2 kts | 245° |
| 2026-04-30 21:46 | 45.32073 | -75.66277 | 377 ft | 0 kts | 237° |
| 2026-04-30 21:47 | 45.32074 | -75.66273 | 377 ft | 0 kts | 236° |
| 2026-04-30 21:48 | 45.32058 | -75.66296 | 377 ft | 7 kts | 216° |
| 2026-04-30 21:48 | 45.31991 | -75.66350 | 377 ft | 13 kts | 192° |
| 2026-04-30 21:49 | 45.31887 | -75.66418 | 378 ft | 18 kts | 214° |
| 2026-04-30 21:49 | 45.31793 | -75.66408 | 377 ft | 15 kts | 126° |
| 2026-04-30 21:49 | 45.31732 | -75.66285 | 376 ft | 15 kts | 124° |
| 2026-04-30 21:49 | 45.31670 | -75.66160 | 375 ft | 15 kts | 126° |
| 2026-04-30 21:50 | 45.31603 | -75.66032 | 373 ft | 16 kts | 126° |
| 2026-04-30 21:50 | 45.31535 | -75.65902 | 372 ft | 16 kts | 127° |
| 2026-04-30 21:50 | 45.31461 | -75.65766 | 370 ft | 17 kts | 128° |
| 2026-04-30 21:50 | 45.31364 | -75.65692 | 369 ft | 17 kts | 209° |
| 2026-04-30 21:51 | 45.31352 | -75.65803 | 369 ft | 10 kts | 282° |
| 2026-04-30 21:51 | 45.31367 | -75.65899 | 370 ft | 13 kts | 284° |
| 2026-04-30 21:51 | 45.31417 | -75.66118 | 372 ft | 32 kts | 305° |
| 2026-04-30 21:51 | 45.31619 | -75.66516 | 377 ft | 91 kts | 306° |
| 2026-04-30 21:52 | 45.32157 | -75.67578 | 513 ft | 159 kts | 310° |
| 2026-04-30 21:52 | 45.32798 | -75.68784 | 1694 ft | 155 kts | 313° |
| 2026-04-30 21:52 | 45.33504 | -75.69808 | 2865 ft | 152 kts | 330° |
| 2026-04-30 21:52 | 45.34493 | -75.69724 | 3832 ft | 159 kts | 34° |
| 2026-04-30 21:53 | 45.34967 | -75.68334 | 4324 ft | 172 kts | 79° |
| 2026-04-30 21:53 | 45.35171 | -75.66633 | 4731 ft | 182 kts | 71° |
| 2026-04-30 21:53 | 45.35611 | -75.64922 | 5165 ft | 193 kts | 62° |
| 2026-04-30 21:53 | 45.36261 | -75.63161 | 5596 ft | 207 kts | 55° |
| 2026-04-30 21:54 | 45.37053 | -75.61443 | 6247 ft | 211 kts | 51° |
| 2026-04-30 21:54 | 45.37923 | -75.59772 | 6916 ft | 214 kts | 48° |
| 2026-04-30 21:54 | 45.38833 | -75.58166 | 7572 ft | 217 kts | 47° |
| 2026-04-30 21:54 | 45.39797 | -75.56557 | 8219 ft | 221 kts | 46° |
| 2026-04-30 21:55 | 45.40825 | -75.54914 | 8896 ft | 225 kts | 45° |
| 2026-04-30 21:55 | 45.41808 | -75.53390 | 9507 ft | 228 kts | 45° |
| 2026-04-30 21:55 | 45.42897 | -75.51739 | 10164 ft | 232 kts | 45° |
| 2026-04-30 21:55 | 45.44009 | -75.50080 | 10861 ft | 235 kts | 45° |
| 2026-04-30 21:56 | 45.45155 | -75.48390 | 11570 ft | 238 kts | 45° |
| 2026-04-30 21:56 | 45.46313 | -75.46697 | 12091 ft | 248 kts | 45° |
| 2026-04-30 21:56 | 45.47552 | -75.44898 | 12632 ft | 255 kts | 45° |
| 2026-04-30 21:56 | 45.48785 | -75.43120 | 13291 ft | 256 kts | 45° |
| 2026-04-30 21:57 | 45.50044 | -75.41306 | 13884 ft | 259 kts | 45° |
| 2026-04-30 21:57 | 45.51310 | -75.39486 | 14481 ft | 261 kts | 45° |
| 2026-04-30 21:57 | 45.52581 | -75.37658 | 15010 ft | 265 kts | 46° |
| 2026-04-30 21:57 | 45.53896 | -75.35769 | 15554 ft | 268 kts | 45° |
| 2026-04-30 21:58 | 45.55203 | -75.33890 | 16085 ft | 270 kts | 46° |
| 2026-04-30 21:58 | 45.56533 | -75.31979 | 16593 ft | 273 kts | 46° |
| 2026-04-30 21:58 | 45.57887 | -75.30030 | 16883 ft | 286 kts | 46° |
| 2026-04-30 21:58 | 45.59337 | -75.27944 | 16975 ft | 305 kts | 46° |
| 2026-04-30 21:59 | 45.60871 | -75.25734 | 16897 ft | 326 kts | 46° |
| 2026-04-30 21:59 | 45.62521 | -75.23358 | 16872 ft | 340 kts | 46° |
| 2026-04-30 21:59 | 45.64202 | -75.20922 | 16860 ft | 351 kts | 47° |
| 2026-04-30 22:00 | 45.66632 | -75.14831 | 16847 ft | 365 kts | 68° |
| 2026-04-30 22:00 | 45.68722 | -75.08133 | 16847 ft | 375 kts | 68° |
| 2026-04-30 22:00 | 45.69788 | -75.04720 | 16844 ft | 378 kts | 68° |
| 2026-04-30 22:01 | 45.70849 | -75.01331 | 16820 ft | 371 kts | 68° |
| 2026-04-30 22:01 | 45.71897 | -74.97997 | 16820 ft | 363 kts | 68° |
| 2026-04-30 22:01 | 45.72917 | -74.94746 | 16825 ft | 357 kts | 68° |
| 2026-04-30 22:01 | 45.73938 | -74.91490 | 16826 ft | 353 kts | 68° |
| 2026-04-30 22:02 | 45.74922 | -74.88348 | 16831 ft | 348 kts | 68° |
| 2026-04-30 22:02 | 45.75912 | -74.85183 | 16821 ft | 345 kts | 68° |
| 2026-04-30 22:02 | 45.76884 | -74.82070 | 16822 ft | 344 kts | 68° |
| 2026-04-30 22:02 | 45.77857 | -74.78954 | 16828 ft | 342 kts | 68° |
| 2026-04-30 22:03 | 45.78820 | -74.75865 | 16821 ft | 341 kts | 68° |
| 2026-04-30 22:03 | 45.79783 | -74.72773 | 16822 ft | 340 kts | 68° |
| 2026-04-30 22:03 | 45.80742 | -74.69688 | 16817 ft | 339 kts | 68° |
| 2026-04-30 22:03 | 45.81696 | -74.66620 | 16825 ft | 338 kts | 68° |
| 2026-04-30 22:04 | 45.82660 | -74.63511 | 16832 ft | 338 kts | 68° |
| 2026-04-30 22:04 | 45.83609 | -74.60452 | 16830 ft | 337 kts | 68° |
| 2026-04-30 22:04 | 45.85497 | -74.54348 | 16826 ft | 337 kts | 69° |
| 2026-04-30 22:05 | 45.86441 | -74.51292 | 16829 ft | 336 kts | 68° |
| 2026-04-30 22:05 | 45.87382 | -74.48241 | 16824 ft | 335 kts | 68° |
| 2026-04-30 22:05 | 45.88330 | -74.45165 | 16829 ft | 334 kts | 69° |
| 2026-04-30 22:05 | 45.89257 | -74.42152 | 16829 ft | 335 kts | 68° |
| 2026-04-30 22:06 | 45.90157 | -74.39079 | 16818 ft | 333 kts | 73° |
| 2026-04-30 22:06 | 45.89460 | -74.33003 | 16825 ft | 310 kts | 132° |
| 2026-04-30 22:06 | 45.87952 | -74.30838 | 16829 ft | 307 kts | 141° |
| 2026-04-30 22:07 | 45.86361 | -74.28809 | 16821 ft | 307 kts | 142° |
| 2026-04-30 22:07 | 45.84737 | -74.26801 | 16828 ft | 307 kts | 143° |
| 2026-04-30 22:07 | 45.83130 | -74.24850 | 16828 ft | 307 kts | 143° |
| 2026-04-30 22:07 | 45.81470 | -74.22860 | 16572 ft | 305 kts | 143° |
| 2026-04-30 22:08 | 45.79892 | -74.20968 | 16103 ft | 295 kts | 143° |
| 2026-04-30 22:08 | 45.78334 | -74.19116 | 15633 ft | 286 kts | 144° |
| 2026-04-30 22:08 | 45.76839 | -74.17351 | 15173 ft | 278 kts | 144° |
| 2026-04-30 22:08 | 45.75401 | -74.15535 | 14693 ft | 274 kts | 135° |
| 2026-04-30 22:09 | 45.74382 | -74.13267 | 14305 ft | 266 kts | 121° |
| 2026-04-30 22:09 | 45.73518 | -74.11050 | 14103 ft | 251 kts | 125° |
| 2026-04-30 22:09 | 45.72657 | -74.08884 | 13572 ft | 250 kts | 122° |
| 2026-04-30 22:09 | 45.71830 | -74.06743 | 13159 ft | 243 kts | 122° |
| 2026-04-30 22:10 | 45.71081 | -74.04650 | 12839 ft | 232 kts | 120° |
| 2026-04-30 22:10 | 45.70371 | -74.02625 | 12413 ft | 227 kts | 119° |
| 2026-04-30 22:10 | 45.69711 | -74.00565 | 11769 ft | 230 kts | 118° |
| 2026-04-30 22:10 | 45.68956 | -73.98625 | 11461 ft | 216 kts | 127° |
| 2026-04-30 22:11 | 45.67398 | -73.94931 | 10851 ft | 218 kts | 125° |
| 2026-04-30 22:11 | 45.66531 | -73.93160 | 10629 ft | 222 kts | 126° |
| 2026-04-30 22:11 | 45.65751 | -73.91238 | 10469 ft | 227 kts | 121° |
| 2026-04-30 22:12 | 45.64939 | -73.89193 | 10013 ft | 243 kts | 126° |
| 2026-04-30 22:12 | 45.63942 | -73.87219 | 9534 ft | 257 kts | 124° |
| 2026-04-30 22:12 | 45.63036 | -73.85008 | 8889 ft | 260 kts | 120° |
| 2026-04-30 22:12 | 45.62225 | -73.82731 | 8345 ft | 256 kts | 117° |
| 2026-04-30 22:13 | 45.61378 | -73.80517 | 7813 ft | 254 kts | 125° |
| 2026-04-30 22:13 | 45.60478 | -73.78394 | 7310 ft | 251 kts | 114° |
| 2026-04-30 22:13 | 45.60218 | -73.76042 | 6827 ft | 242 kts | 78° |
| 2026-04-30 22:13 | 45.60950 | -73.73979 | 6366 ft | 230 kts | 47° |
| 2026-04-30 22:14 | 45.62018 | -73.72324 | 5956 ft | 223 kts | 43° |
| 2026-04-30 22:14 | 45.63073 | -73.70786 | 5678 ft | 211 kts | 41° |
| 2026-04-30 22:14 | 45.64093 | -73.69337 | 5404 ft | 199 kts | 40° |
| 2026-04-30 22:14 | 45.65033 | -73.68022 | 5174 ft | 183 kts | 39° |
| 2026-04-30 22:15 | 45.65907 | -73.66813 | 4929 ft | 166 kts | 39° |
| 2026-04-30 22:15 | 45.66705 | -73.65721 | 4639 ft | 151 kts | 38° |
| 2026-04-30 22:15 | 45.67468 | -73.64686 | 4238 ft | 157 kts | 38° |
| 2026-04-30 22:15 | 45.68272 | -73.63590 | 4137 ft | 170 kts | 39° |
| 2026-04-30 22:16 | 45.69212 | -73.62319 | 4048 ft | 198 kts | 39° |
| 2026-04-30 22:16 | 45.70062 | -73.60635 | 3909 ft | 229 kts | 68° |
| 2026-04-30 22:17 | 45.67419 | -73.55485 | 3428 ft | 232 kts | 164° |
| 2026-04-30 22:17 | 45.65931 | -73.54794 | 3278 ft | 217 kts | 163° |
| 2026-04-30 22:17 | 45.63265 | -73.54400 | 2909 ft | 172 kts | 221° |
| 2026-04-30 22:18 | 45.62802 | -73.55657 | 2757 ft | 130 kts | 283° |
| 2026-04-30 22:18 | 45.62752 | -73.57980 | 2675 ft | 132 kts | 223° |
| 2026-04-30 22:19 | 45.60847 | -73.58520 | 2845 ft | 140 kts | 193° |
| 2026-04-30 22:19 | 45.59891 | -73.58701 | 2828 ft | 133 kts | 196° |
| 2026-04-30 22:19 | 45.58662 | -73.60278 | 3019 ft | 136 kts | 228° |
| 2026-04-30 22:20 | 45.57895 | -73.61150 | 2882 ft | 150 kts | 225° |
| 2026-04-30 22:20 | 45.56399 | -73.63030 | 2270 ft | 133 kts | 227° |
| 2026-04-30 22:20 | 45.55752 | -73.63868 | 2035 ft | 122 kts | 230° |
| 2026-04-30 22:21 | 45.55129 | -73.64704 | 1921 ft | 122 kts | 230° |
| 2026-04-30 22:21 | 45.54505 | -73.65520 | 1800 ft | 122 kts | 229° |
| 2026-04-30 22:21 | 45.53870 | -73.66358 | 1666 ft | 128 kts | 229° |
| 2026-04-30 22:21 | 45.53190 | -73.67252 | 1526 ft | 137 kts | 228° |
| 2026-04-30 22:22 | 45.52494 | -73.68142 | 1281 ft | 130 kts | 227° |
| 2026-04-30 22:22 | 45.51846 | -73.68999 | 1103 ft | 125 kts | 228° |
| 2026-04-30 22:22 | 45.51208 | -73.69826 | 929 ft | 124 kts | 229° |
| 2026-04-30 22:22 | 45.50584 | -73.70647 | 781 ft | 122 kts | 227° |
| 2026-04-30 22:23 | 45.49979 | -73.71443 | 624 ft | 124 kts | 228° |
| 2026-04-30 22:23 | 45.49329 | -73.72282 | 456 ft | 128 kts | 227° |
| 2026-04-30 22:23 | 45.48665 | -73.73154 | 304 ft | 131 kts | 227° |
| 2026-04-30 22:23 | 45.48009 | -73.74003 | 134 ft | 117 kts | 226° |
| 2026-04-30 22:24 | 45.47542 | -73.74620 | 120 ft | 60 kts | 225° |
| 2026-04-30 22:24 | 45.47314 | -73.74938 | 118 ft | 41 kts | 226° |
| 2026-04-30 22:24 | 45.47144 | -73.75060 | 117 ft | 19 kts | 176° |
| 2026-04-30 22:24 | 45.47033 | -73.75049 | 117 ft | 12 kts | 177° |
| 2026-04-30 22:25 | 45.46906 | -73.75043 | 116 ft | 24 kts | 181° |
| 2026-04-30 22:25 | 45.46754 | -73.75036 | 115 ft | 20 kts | 174° |
| 2026-04-30 22:25 | 45.46623 | -73.75023 | 114 ft | 17 kts | 178° |
| 2026-04-30 22:25 | 45.46508 | -73.75023 | 113 ft | 15 kts | 178° |
| 2026-04-30 22:26 | 45.46318 | -73.75002 | 112 ft | 11 kts | 171° |
| 2026-04-30 22:26 | 45.46234 | -73.74989 | 112 ft | 12 kts | 177° |
| 2026-04-30 22:26 | 45.46167 | -73.74973 | 111 ft | 7 kts | 138° |
| 2026-04-30 22:27 | 45.46150 | -73.74902 | 111 ft | 8 kts | 110° |
| 2026-04-30 22:27 | 45.46113 | -73.74863 | 111 ft | 7 kts | 173° |
| 2026-04-30 22:27 | 45.46060 | -73.74858 | 111 ft | 1 kts | 179° |
| 2026-04-30 22:28 | 45.46059 | -73.74858 | 111 ft | 0 kts | 179° |